sensor_id;sensor_type;location;lat;lon;timestamp;P1;durP1;ratioP1;P2;durP2;ratioP2
37419;SDS011;47344;52.374;4.816;2023-02-08T00:01:15;32.8;;;22.5;;
37419;SDS011;47344;52.374;4.816;2023-02-08T00:02:55;36.21;;;24.2;;
37419;SDS011;47344;52.374;4.816;2023-02-08T00:04:31;35.81;;;24.5;;
37419;SDS011;47344;52.374;4.816;2023-02-08T00:07:44;34.4;;;22.2;;
37419;SDS011;47344;52.374;4.816;2023-02-08T00:09:20;33.71;;;23.2;;
37419;SDS011;47344;52.374;4.816;2023-02-08T00:10:56;36.6;;;24.2;;
37419;SDS011;47344;52.374;4.816;2023-02-08T00:14:09;32.21;;;23.9;;
37419;SDS011;47344;52.374;4.816;2023-02-08T00:15:46;34.1;;;22.7;;
37419;SDS011;47344;52.374;4.816;2023-02-08T00:17:22;35.21;;;23.6;;
37419;SDS011;47344;52.374;4.816;2023-02-08T00:18:58;38.5;;;25.0;;
37419;SDS011;47344;52.374;4.816;2023-02-08T00:22:13;36.21;;;23.3;;
37419;SDS011;47344;52.374;4.816;2023-02-08T00:23:49;34.31;;;23.6;;
37419;SDS011;47344;52.374;4.816;2023-02-08T00:25:25;35.81;;;23.8;;
37419;SDS011;47344;52.374;4.816;2023-02-08T00:28:37;35.4;;;23.7;;
37419;SDS011;47344;52.374;4.816;2023-02-08T00:31:50;34.4;;;23.5;;
37419;SDS011;47344;52.374;4.816;2023-02-08T00:35:02;38.21;;;25.1;;
37419;SDS011;47344;52.374;4.816;2023-02-08T00:36:38;33.0;;;23.4;;
37419;SDS011;47344;52.374;4.816;2023-02-08T00:38:14;37.6;;;25.2;;
37419;SDS011;47344;52.374;4.816;2023-02-08T00:39:50;33.5;;;23.5;;
37419;SDS011;47344;52.374;4.816;2023-02-08T00:43:03;33.4;;;23.5;;
37419;SDS011;47344;52.374;4.816;2023-02-08T00:44:39;32.0;;;22.0;;
37419;SDS011;47344;52.374;4.816;2023-02-08T00:46:15;34.0;;;23.2;;
37419;SDS011;47344;52.374;4.816;2023-02-08T00:49:27;30.7;;;22.4;;
37419;SDS011;47344;52.374;4.816;2023-02-08T00:51:05;34.31;;;23.6;;
37419;SDS011;47344;52.374;4.816;2023-02-08T00:52:42;33.5;;;22.9;;
37419;SDS011;47344;52.374;4.816;2023-02-08T00:55:56;31.8;;;23.9;;
37419;SDS011;47344;52.374;4.816;2023-02-08T00:57:33;33.9;;;23.0;;
37419;SDS011;47344;52.374;4.816;2023-02-08T00:59:10;32.1;;;22.4;;
37419;SDS011;47344;52.374;4.816;2023-02-08T01:00:49;32.5;;;22.7;;
37419;SDS011;47344;52.374;4.816;2023-02-08T01:04:03;32.8;;;22.9;;
37419;SDS011;47344;52.374;4.816;2023-02-08T01:05:41;30.6;;;23.2;;
37419;SDS011;47344;52.374;4.816;2023-02-08T01:07:17;34.0;;;24.1;;
37419;SDS011;47344;52.374;4.816;2023-02-08T01:10:29;33.8;;;23.2;;
37419;SDS011;47344;52.374;4.816;2023-02-08T01:12:08;31.8;;;22.7;;
37419;SDS011;47344;52.374;4.816;2023-02-08T01:13:45;33.6;;;24.3;;
37419;SDS011;47344;52.374;4.816;2023-02-08T01:16:59;36.71;;;24.7;;
37419;SDS011;47344;52.374;4.816;2023-02-08T01:18:35;36.71;;;24.7;;
37419;SDS011;47344;52.374;4.816;2023-02-08T01:20:12;34.71;;;24.2;;
37419;SDS011;47344;52.374;4.816;2023-02-08T01:21:48;34.71;;;24.2;;
37419;SDS011;47344;52.374;4.816;2023-02-08T01:25:00;34.1;;;24.2;;
37419;SDS011;47344;52.374;4.816;2023-02-08T01:26:36;33.21;;;23.3;;
37419;SDS011;47344;52.374;4.816;2023-02-08T01:28:13;34.21;;;24.2;;
37419;SDS011;47344;52.374;4.816;2023-02-08T01:31:28;30.3;;;22.4;;
37419;SDS011;47344;52.374;4.816;2023-02-08T01:33:07;32.1;;;24.3;;
37419;SDS011;47344;52.374;4.816;2023-02-08T01:34:43;35.0;;;24.7;;
37419;SDS011;47344;52.374;4.816;2023-02-08T01:37:56;30.5;;;23.5;;
37419;SDS011;47344;52.374;4.816;2023-02-08T01:39:32;33.5;;;24.2;;
37419;SDS011;47344;52.374;4.816;2023-02-08T01:41:12;33.8;;;24.8;;
37419;SDS011;47344;52.374;4.816;2023-02-08T01:42:51;31.4;;;23.4;;
37419;SDS011;47344;52.374;4.816;2023-02-08T01:47:07;31.6;;;22.9;;
37419;SDS011;47344;52.374;4.816;2023-02-08T01:50:20;34.0;;;24.8;;
37419;SDS011;47344;52.374;4.816;2023-02-08T01:52:02;34.31;;;24.6;;
37419;SDS011;47344;52.374;4.816;2023-02-08T01:53:44;34.5;;;24.1;;
37419;SDS011;47344;52.374;4.816;2023-02-08T01:55:23;34.6;;;25.2;;
37419;SDS011;47344;52.374;4.816;2023-02-08T01:58:43;31.7;;;22.1;;
37419;SDS011;47344;52.374;4.816;2023-02-08T02:00:30;32.71;;;23.2;;
37419;SDS011;47344;52.374;4.816;2023-02-08T02:02:09;34.0;;;24.7;;
37419;SDS011;47344;52.374;4.816;2023-02-08T02:03:48;30.5;;;22.4;;
37419;SDS011;47344;52.374;4.816;2023-02-08T02:07:09;31.1;;;23.5;;
37419;SDS011;47344;52.374;4.816;2023-02-08T02:08:48;32.1;;;24.2;;
37419;SDS011;47344;52.374;4.816;2023-02-08T02:10:32;28.1;;;21.3;;
37419;SDS011;47344;52.374;4.816;2023-02-08T02:12:10;30.5;;;23.7;;
37419;SDS011;47344;52.374;4.816;2023-02-08T02:15:26;32.5;;;23.3;;
37419;SDS011;47344;52.374;4.816;2023-02-08T02:17:02;29.7;;;23.6;;
37419;SDS011;47344;52.374;4.816;2023-02-08T02:18:39;33.6;;;24.7;;
37419;SDS011;47344;52.374;4.816;2023-02-08T02:20:17;29.0;;;21.8;;
37419;SDS011;47344;52.374;4.816;2023-02-08T02:24:06;30.5;;;23.3;;
37419;SDS011;47344;52.374;4.816;2023-02-08T02:27:08;30.7;;;23.4;;
37419;SDS011;47344;52.374;4.816;2023-02-08T02:33:11;28.6;;;22.3;;
37419;SDS011;47344;52.374;4.816;2023-02-08T02:35:50;29.7;;;23.3;;
37419;SDS011;47344;52.374;4.816;2023-02-08T02:37:44;31.1;;;24.1;;
37419;SDS011;47344;52.374;4.816;2023-02-08T02:39:31;31.5;;;24.3;;
37419;SDS011;47344;52.374;4.816;2023-02-08T02:43:41;29.4;;;22.7;;
37419;SDS011;47344;52.374;4.816;2023-02-08T02:45:23;27.8;;;21.6;;
37419;SDS011;47344;52.374;4.816;2023-02-08T02:48:55;27.6;;;23.3;;
37419;SDS011;47344;52.374;4.816;2023-02-08T02:50:39;26.6;;;20.9;;
37419;SDS011;47344;52.374;4.816;2023-02-08T02:52:21;30.0;;;23.6;;
37419;SDS011;47344;52.374;4.816;2023-02-08T02:54:05;30.4;;;23.8;;
37419;SDS011;47344;52.374;4.816;2023-02-08T02:57:31;29.3;;;23.0;;
37419;SDS011;47344;52.374;4.816;2023-02-08T02:59:09;30.1;;;23.9;;
37419;SDS011;47344;52.374;4.816;2023-02-08T03:00:51;30.9;;;23.9;;
37419;SDS011;47344;52.374;4.816;2023-02-08T03:02:29;28.8;;;23.2;;
37419;SDS011;47344;52.374;4.816;2023-02-08T03:05:49;29.0;;;23.1;;
37419;SDS011;47344;52.374;4.816;2023-02-08T03:07:42;28.9;;;22.4;;
37419;SDS011;47344;52.374;4.816;2023-02-08T03:09:41;30.2;;;24.8;;
37419;SDS011;47344;52.374;4.816;2023-02-08T03:11:35;29.2;;;23.3;;
37419;SDS011;47344;52.374;4.816;2023-02-08T03:13:16;28.3;;;23.1;;
37419;SDS011;47344;52.374;4.816;2023-02-08T03:15:10;27.1;;;21.3;;
37419;SDS011;47344;52.374;4.816;2023-02-08T03:17:01;28.7;;;22.5;;
37419;SDS011;47344;52.374;4.816;2023-02-08T03:18:55;28.6;;;22.4;;
37419;SDS011;47344;52.374;4.816;2023-02-08T03:22:27;28.6;;;22.4;;
37419;SDS011;47344;52.374;4.816;2023-02-08T03:24:22;30.8;;;23.7;;
37419;SDS011;47344;52.374;4.816;2023-02-08T03:26:04;29.6;;;23.3;;
37419;SDS011;47344;52.374;4.816;2023-02-08T03:27:54;30.7;;;24.3;;
37419;SDS011;47344;52.374;4.816;2023-02-08T03:29:41;30.9;;;24.5;;
37419;SDS011;47344;52.374;4.816;2023-02-08T03:31:29;32.5;;;24.3;;
37419;SDS011;47344;52.374;4.816;2023-02-08T03:34:55;31.8;;;24.0;;
37419;SDS011;47344;52.374;4.816;2023-02-08T03:36:38;28.6;;;23.1;;
37419;SDS011;47344;52.374;4.816;2023-02-08T03:38:22;27.4;;;21.9;;
37419;SDS011;47344;52.374;4.816;2023-02-08T03:40:06;27.2;;;21.6;;
37419;SDS011;47344;52.374;4.816;2023-02-08T03:43:28;33.71;;;24.6;;
37419;SDS011;47344;52.374;4.816;2023-02-08T03:45:12;30.8;;;23.0;;
37419;SDS011;47344;52.374;4.816;2023-02-08T03:46:54;31.4;;;23.5;;
37419;SDS011;47344;52.374;4.816;2023-02-08T03:48:36;29.1;;;23.6;;
37419;SDS011;47344;52.374;4.816;2023-02-08T03:50:16;33.1;;;23.7;;
37419;SDS011;47344;52.374;4.816;2023-02-08T03:53:39;31.7;;;23.8;;
37419;SDS011;47344;52.374;4.816;2023-02-08T03:55:20;29.2;;;23.1;;
37419;SDS011;47344;52.374;4.816;2023-02-08T03:57:02;31.7;;;23.6;;
37419;SDS011;47344;52.374;4.816;2023-02-08T03:58:46;30.2;;;23.0;;
37419;SDS011;47344;52.374;4.816;2023-02-08T04:02:15;30.7;;;23.6;;
37419;SDS011;47344;52.374;4.816;2023-02-08T04:03:56;27.6;;;21.1;;
37419;SDS011;47344;52.374;4.816;2023-02-08T04:05:34;28.1;;;22.5;;
37419;SDS011;47344;52.374;4.816;2023-02-08T04:07:11;29.7;;;23.1;;
37419;SDS011;47344;52.374;4.816;2023-02-08T04:10:25;29.5;;;23.5;;
37419;SDS011;47344;52.374;4.816;2023-02-08T04:12:02;29.8;;;23.6;;
37419;SDS011;47344;52.374;4.816;2023-02-08T04:13:40;31.4;;;23.5;;
37419;SDS011;47344;52.374;4.816;2023-02-08T04:16:53;30.2;;;22.6;;
37419;SDS011;47344;52.374;4.816;2023-02-08T04:18:30;29.7;;;23.7;;
37419;SDS011;47344;52.374;4.816;2023-02-08T04:20:06;27.2;;;21.2;;
37419;SDS011;47344;52.374;4.816;2023-02-08T04:21:44;31.0;;;23.7;;
37419;SDS011;47344;52.374;4.816;2023-02-08T04:24:56;26.7;;;20.9;;
37419;SDS011;47344;52.374;4.816;2023-02-08T04:26:33;30.6;;;22.8;;
37419;SDS011;47344;52.374;4.816;2023-02-08T04:28:11;29.5;;;23.7;;
37419;SDS011;47344;52.374;4.816;2023-02-08T04:31:23;31.5;;;23.6;;
37419;SDS011;47344;52.374;4.816;2023-02-08T04:32:59;27.8;;;21.9;;
37419;SDS011;47344;52.374;4.816;2023-02-08T04:34:35;28.0;;;22.3;;
37419;SDS011;47344;52.374;4.816;2023-02-08T04:37:47;31.4;;;22.5;;
37419;SDS011;47344;52.374;4.816;2023-02-08T04:39:23;28.6;;;21.4;;
37419;SDS011;47344;52.374;4.816;2023-02-08T04:40:59;28.8;;;21.3;;
37419;SDS011;47344;52.374;4.816;2023-02-08T04:42:36;27.2;;;20.0;;
37419;SDS011;47344;52.374;4.816;2023-02-08T04:45:50;28.5;;;21.4;;
37419;SDS011;47344;52.374;4.816;2023-02-08T04:47:27;25.4;;;19.5;;
37419;SDS011;47344;52.374;4.816;2023-02-08T04:49:03;25.4;;;19.5;;
37419;SDS011;47344;52.374;4.816;2023-02-08T04:52:16;25.5;;;20.2;;
37419;SDS011;47344;52.374;4.816;2023-02-08T04:53:52;28.3;;;21.1;;
37419;SDS011;47344;52.374;4.816;2023-02-08T04:55:29;27.3;;;20.7;;
37419;SDS011;47344;52.374;4.816;2023-02-08T04:58:41;24.3;;;19.11;;
37419;SDS011;47344;52.374;4.816;2023-02-08T05:00:18;26.3;;;20.0;;
37419;SDS011;47344;52.374;4.816;2023-02-08T05:01:54;25.1;;;18.61;;
37419;SDS011;47344;52.374;4.816;2023-02-08T05:03:30;24.8;;;18.41;;
37419;SDS011;47344;52.374;4.816;2023-02-08T05:06:44;24.7;;;19.5;;
37419;SDS011;47344;52.374;4.816;2023-02-08T05:08:20;23.3;;;18.2;;
37419;SDS011;47344;52.374;4.816;2023-02-08T05:09:56;26.5;;;19.41;;
37419;SDS011;47344;52.374;4.816;2023-02-08T05:13:08;23.4;;;18.3;;
37419;SDS011;47344;52.374;4.816;2023-02-08T05:14:44;22.0;;;18.2;;
37419;SDS011;47344;52.374;4.816;2023-02-08T05:16:20;25.1;;;18.3;;
37419;SDS011;47344;52.374;4.816;2023-02-08T05:19:32;25.9;;;19.11;;
37419;SDS011;47344;52.374;4.816;2023-02-08T05:21:09;24.9;;;18.91;;
37419;SDS011;47344;52.374;4.816;2023-02-08T05:22:46;25.1;;;18.61;;
37419;SDS011;47344;52.374;4.816;2023-02-08T05:24:22;25.3;;;19.61;;
37419;SDS011;47344;52.374;4.816;2023-02-08T05:27:40;22.5;;;18.11;;
37419;SDS011;47344;52.374;4.816;2023-02-08T05:29:17;25.6;;;19.41;;
37419;SDS011;47344;52.374;4.816;2023-02-08T05:30:53;25.5;;;19.61;;
37419;SDS011;47344;52.374;4.816;2023-02-08T05:34:06;25.2;;;19.0;;
37419;SDS011;47344;52.374;4.816;2023-02-08T05:35:43;25.6;;;18.7;;
37419;SDS011;47344;52.374;4.816;2023-02-08T05:37:19;25.4;;;18.8;;
37419;SDS011;47344;52.374;4.816;2023-02-08T05:40:32;26.0;;;19.41;;
37419;SDS011;47344;52.374;4.816;2023-02-08T05:42:08;25.2;;;18.8;;
37419;SDS011;47344;52.374;4.816;2023-02-08T05:43:45;21.4;;;17.11;;
37419;SDS011;47344;52.374;4.816;2023-02-08T05:45:21;22.6;;;17.5;;
37419;SDS011;47344;52.374;4.816;2023-02-08T05:48:33;23.2;;;17.61;;
37419;SDS011;47344;52.374;4.816;2023-02-08T05:50:10;22.0;;;16.9;;
37419;SDS011;47344;52.374;4.816;2023-02-08T05:51:46;23.0;;;17.11;;
37419;SDS011;47344;52.374;4.816;2023-02-08T05:54:58;24.5;;;18.41;;
37419;SDS011;47344;52.374;4.816;2023-02-08T05:56:36;22.5;;;16.4;;
37419;SDS011;47344;52.374;4.816;2023-02-08T05:58:12;21.6;;;17.3;;
37419;SDS011;47344;52.374;4.816;2023-02-08T06:01:24;23.2;;;17.7;;
37419;SDS011;47344;52.374;4.816;2023-02-08T06:03:00;24.5;;;18.61;;
37419;SDS011;47344;52.374;4.816;2023-02-08T06:04:36;23.8;;;18.0;;
37419;SDS011;47344;52.374;4.816;2023-02-08T06:06:13;23.1;;;17.41;;
37419;SDS011;47344;52.374;4.816;2023-02-08T06:09:25;23.6;;;17.3;;
37419;SDS011;47344;52.374;4.816;2023-02-08T06:11:01;23.7;;;17.7;;
37419;SDS011;47344;52.374;4.816;2023-02-08T06:12:37;25.0;;;19.3;;
37419;SDS011;47344;52.374;4.816;2023-02-08T06:15:49;22.4;;;16.9;;
37419;SDS011;47344;52.374;4.816;2023-02-08T06:17:25;22.6;;;17.41;;
37419;SDS011;47344;52.374;4.816;2023-02-08T06:19:03;23.5;;;17.41;;
37419;SDS011;47344;52.374;4.816;2023-02-08T06:22:15;22.7;;;17.2;;
37419;SDS011;47344;52.374;4.816;2023-02-08T06:23:52;22.9;;;17.41;;
37419;SDS011;47344;52.374;4.816;2023-02-08T06:25:28;22.4;;;17.61;;
37419;SDS011;47344;52.374;4.816;2023-02-08T06:28:40;21.1;;;16.7;;
37419;SDS011;47344;52.374;4.816;2023-02-08T06:30:16;23.9;;;17.41;;
37419;SDS011;47344;52.374;4.816;2023-02-08T06:31:54;22.7;;;17.3;;
37419;SDS011;47344;52.374;4.816;2023-02-08T06:33:30;25.8;;;17.61;;
37419;SDS011;47344;52.374;4.816;2023-02-08T06:36:44;24.8;;;16.8;;
37419;SDS011;47344;52.374;4.816;2023-02-08T06:38:20;22.9;;;16.8;;
37419;SDS011;47344;52.374;4.816;2023-02-08T06:39:58;22.5;;;16.8;;
37419;SDS011;47344;52.374;4.816;2023-02-08T06:43:10;23.5;;;17.7;;
37419;SDS011;47344;52.374;4.816;2023-02-08T06:44:48;22.7;;;16.9;;
37419;SDS011;47344;52.374;4.816;2023-02-08T06:46:25;21.1;;;16.61;;
37419;SDS011;47344;52.374;4.816;2023-02-08T06:49:37;25.3;;;17.41;;
37419;SDS011;47344;52.374;4.816;2023-02-08T06:51:13;24.7;;;17.3;;
37419;SDS011;47344;52.374;4.816;2023-02-08T06:52:49;23.2;;;17.2;;
37419;SDS011;47344;52.374;4.816;2023-02-08T06:54:25;24.7;;;18.8;;
37419;SDS011;47344;52.374;4.816;2023-02-08T06:57:39;22.7;;;17.5;;
37419;SDS011;47344;52.374;4.816;2023-02-08T06:59:15;23.5;;;17.5;;
37419;SDS011;47344;52.374;4.816;2023-02-08T07:00:51;25.8;;;18.2;;
37419;SDS011;47344;52.374;4.816;2023-02-08T07:04:03;23.6;;;16.9;;
37419;SDS011;47344;52.374;4.816;2023-02-08T07:07:17;22.9;;;16.5;;
37419;SDS011;47344;52.374;4.816;2023-02-08T07:10:30;22.9;;;16.7;;
37419;SDS011;47344;52.374;4.816;2023-02-08T07:12:07;23.7;;;16.8;;
37419;SDS011;47344;52.374;4.816;2023-02-08T07:13:45;21.5;;;16.0;;
37419;SDS011;47344;52.374;4.816;2023-02-08T07:15:21;20.9;;;16.4;;
37419;SDS011;47344;52.374;4.816;2023-02-08T07:18:35;20.8;;;16.0;;
37419;SDS011;47344;52.374;4.816;2023-02-08T07:20:12;24.8;;;16.7;;
37419;SDS011;47344;52.374;4.816;2023-02-08T07:21:49;24.4;;;16.7;;
37419;SDS011;47344;52.374;4.816;2023-02-08T07:25:02;21.8;;;16.4;;
37419;SDS011;47344;52.374;4.816;2023-02-08T07:26:40;23.9;;;15.8;;
37419;SDS011;47344;52.374;4.816;2023-02-08T07:28:16;24.4;;;16.9;;
37419;SDS011;47344;52.374;4.816;2023-02-08T07:29:52;24.5;;;16.3;;
37419;SDS011;47344;52.374;4.816;2023-02-08T07:33:05;21.0;;;15.3;;
37419;SDS011;47344;52.374;4.816;2023-02-08T07:34:41;23.5;;;16.7;;
37419;SDS011;47344;52.374;4.816;2023-02-08T07:36:17;22.7;;;16.0;;
37419;SDS011;47344;52.374;4.816;2023-02-08T07:39:30;22.2;;;15.9;;
37419;SDS011;47344;52.374;4.816;2023-02-08T07:41:07;21.2;;;16.11;;
37419;SDS011;47344;52.374;4.816;2023-02-08T07:42:47;20.11;;;15.6;;
37419;SDS011;47344;52.374;4.816;2023-02-08T07:47:41;22.6;;;15.6;;
37419;SDS011;47344;52.374;4.816;2023-02-08T07:49:17;20.8;;;16.11;;
37419;SDS011;47344;52.374;4.816;2023-02-08T07:50:53;21.4;;;15.5;;
37419;SDS011;47344;52.374;4.816;2023-02-08T07:54:05;20.9;;;15.1;;
37419;SDS011;47344;52.374;4.816;2023-02-08T07:55:43;21.7;;;15.2;;
37419;SDS011;47344;52.374;4.816;2023-02-08T07:57:21;22.4;;;16.11;;
37419;SDS011;47344;52.374;4.816;2023-02-08T08:00:33;22.7;;;15.9;;
37419;SDS011;47344;52.374;4.816;2023-02-08T08:02:09;21.1;;;15.3;;
37419;SDS011;47344;52.374;4.816;2023-02-08T08:03:45;21.6;;;15.8;;
37419;SDS011;47344;52.374;4.816;2023-02-08T08:06:58;22.2;;;16.4;;
37419;SDS011;47344;52.374;4.816;2023-02-08T08:08:35;21.7;;;16.3;;
37419;SDS011;47344;52.374;4.816;2023-02-08T08:10:11;20.6;;;16.11;;
37419;SDS011;47344;52.374;4.816;2023-02-08T08:11:47;23.4;;;16.0;;
37419;SDS011;47344;52.374;4.816;2023-02-08T08:15:00;20.7;;;15.7;;
37419;SDS011;47344;52.374;4.816;2023-02-08T08:16:36;21.0;;;16.2;;
37419;SDS011;47344;52.374;4.816;2023-02-08T08:18:12;21.5;;;15.4;;
37419;SDS011;47344;52.374;4.816;2023-02-08T08:21:26;23.4;;;16.4;;
37419;SDS011;47344;52.374;4.816;2023-02-08T08:23:02;21.2;;;15.8;;
37419;SDS011;47344;52.374;4.816;2023-02-08T08:24:38;21.2;;;15.7;;
37419;SDS011;47344;52.374;4.816;2023-02-08T08:27:56;20.9;;;15.9;;
37419;SDS011;47344;52.374;4.816;2023-02-08T08:29:33;20.9;;;15.8;;
37419;SDS011;47344;52.374;4.816;2023-02-08T08:31:11;23.0;;;16.9;;
37419;SDS011;47344;52.374;4.816;2023-02-08T08:32:49;21.9;;;16.4;;
37419;SDS011;47344;52.374;4.816;2023-02-08T08:36:05;20.5;;;16.3;;
37419;SDS011;47344;52.374;4.816;2023-02-08T08:37:42;26.5;;;17.41;;
37419;SDS011;47344;52.374;4.816;2023-02-08T08:39:18;22.9;;;16.11;;
37419;SDS011;47344;52.374;4.816;2023-02-08T08:42:30;25.3;;;17.2;;
37419;SDS011;47344;52.374;4.816;2023-02-08T08:44:07;21.8;;;17.0;;
37419;SDS011;47344;52.374;4.816;2023-02-08T08:45:44;20.5;;;15.6;;
37419;SDS011;47344;52.374;4.816;2023-02-08T08:47:20;21.4;;;15.5;;
37419;SDS011;47344;52.374;4.816;2023-02-08T08:50:33;22.4;;;16.11;;
37419;SDS011;47344;52.374;4.816;2023-02-08T08:52:09;23.7;;;16.7;;
37419;SDS011;47344;52.374;4.816;2023-02-08T08:53:47;23.8;;;17.3;;
37419;SDS011;47344;52.374;4.816;2023-02-08T08:57:01;24.1;;;17.7;;
37419;SDS011;47344;52.374;4.816;2023-02-08T08:58:38;25.1;;;17.2;;
37419;SDS011;47344;52.374;4.816;2023-02-08T09:00:15;24.7;;;17.5;;
37419;SDS011;47344;52.374;4.816;2023-02-08T09:03:28;27.3;;;18.41;;
37419;SDS011;47344;52.374;4.816;2023-02-08T09:05:07;26.1;;;18.0;;
37419;SDS011;47344;52.374;4.816;2023-02-08T09:06:43;25.8;;;18.2;;
37419;SDS011;47344;52.374;4.816;2023-02-08T09:08:19;27.5;;;18.91;;
37419;SDS011;47344;52.374;4.816;2023-02-08T09:11:32;28.7;;;18.5;;
37419;SDS011;47344;52.374;4.816;2023-02-08T09:13:08;29.7;;;18.8;;
37419;SDS011;47344;52.374;4.816;2023-02-08T09:14:45;25.2;;;17.91;;
37419;SDS011;47344;52.374;4.816;2023-02-08T09:17:59;27.0;;;18.61;;
37419;SDS011;47344;52.374;4.816;2023-02-08T09:19:36;28.1;;;18.61;;
37419;SDS011;47344;52.374;4.816;2023-02-08T09:21:13;27.1;;;18.5;;
37419;SDS011;47344;52.374;4.816;2023-02-08T09:22:52;28.6;;;18.8;;
37419;SDS011;47344;52.374;4.816;2023-02-08T09:26:06;25.1;;;17.2;;
37419;SDS011;47344;52.374;4.816;2023-02-08T09:27:45;22.9;;;16.61;;
37419;SDS011;47344;52.374;4.816;2023-02-08T09:29:21;21.9;;;17.0;;
37419;SDS011;47344;52.374;4.816;2023-02-08T09:32:43;24.9;;;17.5;;
37419;SDS011;47344;52.374;4.816;2023-02-08T09:34:19;24.0;;;17.7;;
37419;SDS011;47344;52.374;4.816;2023-02-08T09:35:56;22.8;;;15.6;;
37419;SDS011;47344;52.374;4.816;2023-02-08T09:37:32;23.3;;;15.8;;
37419;SDS011;47344;52.374;4.816;2023-02-08T09:40:52;21.1;;;15.9;;
37419;SDS011;47344;52.374;4.816;2023-02-08T09:42:47;21.8;;;15.8;;
37419;SDS011;47344;52.374;4.816;2023-02-08T09:44:38;20.6;;;15.3;;
37419;SDS011;47344;52.374;4.816;2023-02-08T09:46:26;20.2;;;14.5;;
37419;SDS011;47344;52.374;4.816;2023-02-08T09:48:12;19.61;;;15.0;;
37419;SDS011;47344;52.374;4.816;2023-02-08T09:51:40;21.6;;;15.1;;
37419;SDS011;47344;52.374;4.816;2023-02-08T09:53:23;20.41;;;14.9;;
37419;SDS011;47344;52.374;4.816;2023-02-08T09:55:12;20.0;;;14.9;;
37419;SDS011;47344;52.374;4.816;2023-02-08T09:57:09;22.6;;;15.6;;
37419;SDS011;47344;52.374;4.816;2023-02-08T09:58:53;22.0;;;15.4;;
37419;SDS011;47344;52.374;4.816;2023-02-08T10:00:34;20.7;;;14.5;;
37419;SDS011;47344;52.374;4.816;2023-02-08T10:03:58;20.8;;;14.4;;
37419;SDS011;47344;52.374;4.816;2023-02-08T10:05:40;21.1;;;14.2;;
37419;SDS011;47344;52.374;4.816;2023-02-08T10:07:17;21.2;;;13.9;;
37419;SDS011;47344;52.374;4.816;2023-02-08T10:08:53;18.7;;;14.0;;
37419;SDS011;47344;52.374;4.816;2023-02-08T10:12:19;17.91;;;14.2;;
37419;SDS011;47344;52.374;4.816;2023-02-08T10:14:12;18.3;;;13.9;;
37419;SDS011;47344;52.374;4.816;2023-02-08T10:16:18;18.8;;;13.5;;
37419;SDS011;47344;52.374;4.816;2023-02-08T10:18:15;18.7;;;14.2;;
37419;SDS011;47344;52.374;4.816;2023-02-08T10:20:06;19.7;;;13.5;;
37419;SDS011;47344;52.374;4.816;2023-02-08T10:21:58;17.61;;;13.1;;
37419;SDS011;47344;52.374;4.816;2023-02-08T10:23:48;17.0;;;13.2;;
37419;SDS011;47344;52.374;4.816;2023-02-08T10:25:44;19.41;;;13.6;;
37419;SDS011;47344;52.374;4.816;2023-02-08T10:29:27;19.11;;;13.3;;
37419;SDS011;47344;52.374;4.816;2023-02-08T10:32:56;18.11;;;12.9;;
37419;SDS011;47344;52.374;4.816;2023-02-08T10:34:37;20.8;;;13.9;;
37419;SDS011;47344;52.374;4.816;2023-02-08T10:36:20;17.91;;;13.0;;
37419;SDS011;47344;52.374;4.816;2023-02-08T10:39:59;17.8;;;13.4;;
37419;SDS011;47344;52.374;4.816;2023-02-08T10:41:53;19.11;;;12.9;;
37419;SDS011;47344;52.374;4.816;2023-02-08T10:43:33;17.2;;;12.9;;
37419;SDS011;47344;52.374;4.816;2023-02-08T10:45:17;16.9;;;12.5;;
37419;SDS011;47344;52.374;4.816;2023-02-08T10:47:02;17.91;;;13.5;;
37419;SDS011;47344;52.374;4.816;2023-02-08T10:48:52;17.11;;;13.2;;
37419;SDS011;47344;52.374;4.816;2023-02-08T10:52:18;18.0;;;13.0;;
37419;SDS011;47344;52.374;4.816;2023-02-08T10:53:54;15.9;;;12.6;;
37419;SDS011;47344;52.374;4.816;2023-02-08T10:55:31;19.7;;;13.1;;
37419;SDS011;47344;52.374;4.816;2023-02-08T10:57:13;19.11;;;12.3;;
37419;SDS011;47344;52.374;4.816;2023-02-08T11:00:36;16.11;;;12.4;;
37419;SDS011;47344;52.374;4.816;2023-02-08T11:02:16;17.0;;;12.5;;
37419;SDS011;47344;52.374;4.816;2023-02-08T11:04:01;17.2;;;12.5;;
37419;SDS011;47344;52.374;4.816;2023-02-08T11:05:39;21.2;;;14.3;;
37419;SDS011;47344;52.374;4.816;2023-02-08T11:08:55;17.3;;;12.3;;
37419;SDS011;47344;52.374;4.816;2023-02-08T11:10:32;16.2;;;12.3;;
37419;SDS011;47344;52.374;4.816;2023-02-08T11:12:14;15.6;;;11.7;;
37419;SDS011;47344;52.374;4.816;2023-02-08T11:14:03;16.0;;;11.6;;
37419;SDS011;47344;52.374;4.816;2023-02-08T11:17:24;16.5;;;11.8;;
37419;SDS011;47344;52.374;4.816;2023-02-08T11:19:06;16.7;;;11.5;;
37419;SDS011;47344;52.374;4.816;2023-02-08T11:20:58;16.61;;;12.1;;
37419;SDS011;47344;52.374;4.816;2023-02-08T11:22:37;15.3;;;11.3;;
37419;SDS011;47344;52.374;4.816;2023-02-08T11:24:21;16.3;;;11.1;;
37419;SDS011;47344;52.374;4.816;2023-02-08T11:27:59;14.7;;;10.8;;
37419;SDS011;47344;52.374;4.816;2023-02-08T11:29:36;14.4;;;11.0;;
37419;SDS011;47344;52.374;4.816;2023-02-08T11:31:15;14.1;;;10.7;;
37419;SDS011;47344;52.374;4.816;2023-02-08T11:33:26;15.7;;;10.8;;
37419;SDS011;47344;52.374;4.816;2023-02-08T11:35:11;15.7;;;10.5;;
37419;SDS011;47344;52.374;4.816;2023-02-08T11:36:54;12.6;;;9.9;;
37419;SDS011;47344;52.374;4.816;2023-02-08T11:40:14;13.7;;;10.3;;
37419;SDS011;47344;52.374;4.816;2023-02-08T11:41:55;14.5;;;10.5;;
37419;SDS011;47344;52.374;4.816;2023-02-08T11:43:35;16.7;;;10.0;;
37419;SDS011;47344;52.374;4.816;2023-02-08T11:45:15;14.6;;;10.3;;
37419;SDS011;47344;52.374;4.816;2023-02-08T11:48:39;14.0;;;10.5;;
37419;SDS011;47344;52.374;4.816;2023-02-08T11:50:22;12.8;;;9.81;;
37419;SDS011;47344;52.374;4.816;2023-02-08T11:52:03;13.9;;;10.21;;
37419;SDS011;47344;52.374;4.816;2023-02-08T11:53:45;14.1;;;10.21;;
37419;SDS011;47344;52.374;4.816;2023-02-08T11:57:03;13.2;;;9.81;;
37419;SDS011;47344;52.374;4.816;2023-02-08T11:58:57;12.9;;;10.1;;
37419;SDS011;47344;52.374;4.816;2023-02-08T12:00:57;12.1;;;9.4;;
37419;SDS011;47344;52.374;4.816;2023-02-08T12:02:37;11.9;;;8.81;;
37419;SDS011;47344;52.374;4.816;2023-02-08T12:04:15;14.3;;;9.5;;
37419;SDS011;47344;52.374;4.816;2023-02-08T12:07:48;11.7;;;8.81;;
37419;SDS011;47344;52.374;4.816;2023-02-08T12:09:41;11.8;;;8.5;;
37419;SDS011;47344;52.374;4.816;2023-02-08T12:13:18;12.8;;;9.0;;
37419;SDS011;47344;52.374;4.816;2023-02-08T12:15:10;10.5;;;8.31;;
37419;SDS011;47344;52.374;4.816;2023-02-08T12:17:04;12.8;;;8.5;;
37419;SDS011;47344;52.374;4.816;2023-02-08T12:19:02;11.2;;;8.1;;
37419;SDS011;47344;52.374;4.816;2023-02-08T12:21:00;10.5;;;8.1;;
37419;SDS011;47344;52.374;4.816;2023-02-08T12:22:47;11.2;;;8.4;;
37419;SDS011;47344;52.374;4.816;2023-02-08T12:26:31;11.4;;;8.9;;
37419;SDS011;47344;52.374;4.816;2023-02-08T12:28:23;10.3;;;8.2;;
37419;SDS011;47344;52.374;4.816;2023-02-08T12:30:16;11.6;;;8.2;;
37419;SDS011;47344;52.374;4.816;2023-02-08T12:32:03;10.4;;;8.4;;
37419;SDS011;47344;52.374;4.816;2023-02-08T12:33:57;10.9;;;8.4;;
37419;SDS011;47344;52.374;4.816;2023-02-08T12:40:54;10.5;;;8.1;;
37419;SDS011;47344;52.374;4.816;2023-02-08T12:42:45;13.5;;;8.4;;
37419;SDS011;47344;52.374;4.816;2023-02-08T12:44:36;11.8;;;8.71;;
37419;SDS011;47344;52.374;4.816;2023-02-08T12:46:32;11.5;;;8.71;;
37419;SDS011;47344;52.374;4.816;2023-02-08T12:48:34;12.1;;;8.5;;
37419;SDS011;47344;52.374;4.816;2023-02-08T12:50:35;10.6;;;8.0;;
37419;SDS011;47344;52.374;4.816;2023-02-08T12:52:24;10.4;;;8.0;;
37419;SDS011;47344;52.374;4.816;2023-02-08T12:54:11;10.9;;;8.4;;
37419;SDS011;47344;52.374;4.816;2023-02-08T12:57:32;11.0;;;7.9;;
37419;SDS011;47344;52.374;4.816;2023-02-08T12:59:10;9.71;;;8.31;;